Time;durP1;ratioP1;P1;durP2;ratioP2;P2;SDS_P1;SDS_P2;PMS_P1;PMS_P2;Temp;Humidity;BMP_temperature;BMP_pressure;BME280_temperature;BME280_humidity;BME280_pressure;Samples;Min_cycle;Max_cycle;Signal;HPM_P1;HPM_P2
2022/09/11 00:02:16;;;;;;;27.37;24.57;;;16.10;99.90;;;;;;5071353;28;20209;-74
2022/09/11 00:04:43;;;;;;;30.10;27.10;;;16.20;99.90;;;;;;5072082;28;20454;-75
2022/09/11 00:07:12;;;;;;;27.67;24.77;;;16.20;99.90;;;;;;5066779;28;20237;-73
2022/09/11 00:09:39;;;;;;;26.73;23.90;;;16.20;99.90;;;;;;5064405;28;20625;-73
2022/09/11 00:12:06;;;;;;;28.92;24.52;;;16.20;99.90;;;;;;5071377;28;20280;-72
2022/09/11 00:14:33;;;;;;;26.10;23.27;;;16.20;99.90;;;;;;5071762;28;20201;-73
2022/09/11 00:17:00;;;;;;;26.95;22.77;;;16.20;99.90;;;;;;5083605;28;20240;-73
2022/09/11 00:19:27;;;;;;;30.05;24.45;;;16.20;99.90;;;;;;5072404;28;20279;-73
2022/09/11 00:21:55;;;;;;;25.95;23.17;;;16.20;99.90;;;;;;5059504;28;20204;-74
2022/09/11 00:24:23;;;;;;;28.88;23.73;;;16.20;99.90;;;;;;5069695;28;20205;-72
2022/09/11 00:26:50;;;;;;;27.88;24.92;;;16.20;99.90;;;;;;5071770;28;20225;-72
2022/09/11 00:29:18;;;;;;;32.90;26.55;;;16.20;99.90;;;;;;5072607;28;20302;-72
2022/09/11 00:31:45;;;;;;;28.05;24.80;;;16.10;99.90;;;;;;5067505;28;20204;-73
2022/09/11 00:34:13;;;;;;;26.30;23.60;;;16.10;99.90;;;;;;5062309;28;20302;-72
2022/09/11 00:36:42;;;;;;;27.13;23.70;;;16.10;99.90;;;;;;5070373;28;20319;-73
2022/09/11 00:39:10;;;;;;;31.77;25.75;;;16.00;99.90;;;;;;5068946;28;20199;-74
2022/09/11 00:41:40;;;;;;;30.13;25.50;;;16.00;99.90;;;;;;5061268;28;20217;-72
2022/09/11 00:44:28;;;;;;;32.85;26.90;;;16.00;99.90;;;;;;5067405;28;20295;-74
2022/09/11 00:46:56;;;;;;;31.08;26.88;;;15.90;99.90;;;;;;5064152;28;20249;-72
2022/09/11 00:49:29;;;;;;;29.15;25.05;;;15.80;99.90;;;;;;5068373;28;20317;-72
2022/09/11 00:51:59;;;;;;;32.45;28.67;;;15.80;99.90;;;;;;5060408;28;20650;-73
2022/09/11 00:54:31;;;;;;;31.15;27.65;;;15.80;99.90;;;;;;5069246;28;20202;-72
2022/09/11 00:57:06;;;;;;;34.95;27.08;;;15.80;99.90;;;;;;5071099;28;20255;-72
2022/09/11 00:59:34;;;;;;;34.92;28.80;;;15.90;99.90;;;;;;5065091;28;20230;-73
2022/09/11 01:02:01;;;;;;;35.13;29.52;;;15.90;99.90;;;;;;5066380;28;20250;-72
2022/09/11 01:04:28;;;;;;;36.45;27.92;;;15.90;99.90;;;;;;5062840;28;20653;-73
2022/09/11 01:06:57;;;;;;;35.38;29.48;;;15.90;99.90;;;;;;5068262;28;20223;-72
2022/09/11 01:09:25;;;;;;;30.40;27.20;;;16.00;99.90;;;;;;5067445;28;20218;-73
2022/09/11 01:12:03;;;;;;;37.65;29.23;;;15.90;99.90;;;;;;5069623;28;20295;-75
2022/09/11 01:14:39;;;;;;;28.52;24.33;;;16.00;99.90;;;;;;5061491;28;20207;-72
2022/09/11 01:17:18;;;;;;;38.75;30.60;;;16.00;99.90;;;;;;5061355;28;20662;-73
2022/09/11 01:20:14;;;;;;;34.83;30.15;;;15.90;99.90;;;;;;5063065;28;20209;-72
2022/09/11 01:23:03;;;;;;;34.22;29.83;;;15.90;99.90;;;;;;5070711;28;20200;-72
2022/09/11 01:25:46;;;;;;;31.23;27.85;;;15.80;99.90;;;;;;5074050;28;20318;-73
2022/09/11 01:28:17;;;;;;;36.58;29.92;;;15.80;99.90;;;;;;5069542;28;20707;-73
2022/09/11 01:30:50;;;;;;;32.97;26.98;;;15.80;99.90;;;;;;5069020;28;20218;-71
2022/09/11 01:33:23;;;;;;;36.72;29.90;;;15.70;99.90;;;;;;5072833;28;20677;-73
2022/09/11 01:35:59;;;;;;;43.55;32.15;;;15.60;99.90;;;;;;5062111;28;20206;-73
2022/09/11 01:38:33;;;;;;;35.65;28.42;;;15.60;99.90;;;;;;5065453;28;20261;-74
2022/09/11 01:41:06;;;;;;;37.83;31.35;;;15.50;99.90;;;;;;5071026;28;20557;-74
2022/09/11 01:43:41;;;;;;;36.33;29.85;;;15.60;99.90;;;;;;5069718;28;20203;-73
2022/09/11 01:46:09;;;;;;;45.05;34.03;;;15.50;99.90;;;;;;5070137;28;20203;-73
2022/09/11 01:48:41;;;;;;;44.45;34.30;;;15.40;99.90;;;;;;5071489;28;20209;-73
2022/09/11 01:51:14;;;;;;;33.58;27.83;;;15.50;99.90;;;;;;5066050;28;20202;-73
2022/09/11 01:53:45;;;;;;;44.17;32.92;;;15.30;99.90;;;;;;5070745;28;20551;-73
2022/09/11 01:56:18;;;;;;;37.40;29.02;;;15.30;99.90;;;;;;5070169;28;20266;-72
2022/09/11 01:58:48;;;;;;;32.70;29.17;;;15.20;99.90;;;;;;5064743;28;20274;-73
2022/09/11 02:01:20;;;;;;;32.42;27.67;;;15.20;99.90;;;;;;5066783;28;20649;-73
2022/09/11 02:03:51;;;;;;;36.17;29.77;;;15.20;99.90;;;;;;5065749;28;20220;-73
2022/09/11 02:06:25;;;;;;;37.63;29.20;;;15.20;99.90;;;;;;5069471;28;20198;-73
2022/09/11 02:08:57;;;;;;;41.53;32.42;;;15.20;99.90;;;;;;5072580;28;20229;-74
2022/09/11 02:11:25;;;;;;;42.03;32.75;;;15.20;99.90;;;;;;5082180;28;20259;-72
2022/09/11 02:13:59;;;;;;;37.65;31.00;;;15.20;99.90;;;;;;5082366;28;20625;-73
2022/09/11 02:16:39;;;;;;;46.45;33.38;;;15.10;99.90;;;;;;5073949;28;20205;-74
2022/09/11 02:19:11;;;;;;;39.35;32.38;;;15.20;99.90;;;;;;5074226;28;20191;-72
2022/09/11 02:21:39;;;;;;;36.30;29.90;;;15.20;99.90;;;;;;5073120;28;20206;-73
2022/09/11 02:24:07;;;;;;;56.58;37.33;;;15.10;99.90;;;;;;5074392;28;20196;-72
2022/09/11 02:26:39;;;;;;;38.85;33.70;;;15.10;99.90;;;;;;5073170;28;20217;-73
2022/09/11 02:29:09;;;;;;;44.22;32.60;;;15.10;99.90;;;;;;5074478;28;20233;-73
2022/09/11 02:31:36;;;;;;;36.88;30.42;;;15.20;99.90;;;;;;5072800;28;20211;-73
2022/09/11 02:34:03;;;;;;;33.85;28.17;;;15.20;99.90;;;;;;5073945;28;20255;-73
2022/09/11 02:36:47;;;;;;;41.45;32.88;;;15.20;99.90;;;;;;5072829;28;20270;-75
2022/09/11 02:39:28;;;;;;;37.70;29.90;;;15.20;99.90;;;;;;5056282;28;20229;-73
2022/09/11 02:42:07;;;;;;;34.97;30.27;;;15.10;99.90;;;;;;5073413;28;20285;-72
2022/09/11 02:44:39;;;;;;;40.15;31.88;;;15.20;99.90;;;;;;5074064;28;20213;-72
2022/09/11 02:47:19;;;;;;;39.40;30.98;;;15.20;99.90;;;;;;5074407;28;20227;-73
2022/09/11 02:49:58;;;;;;;33.95;28.00;;;15.30;99.90;;;;;;5072064;28;20698;-73
2022/09/11 02:52:39;;;;;;;32.95;29.20;;;15.30;99.90;;;;;;5071246;28;20203;-72
2022/09/11 02:55:12;;;;;;;32.22;26.83;;;15.40;99.90;;;;;;5071897;28;20206;-73
2022/09/11 02:57:45;;;;;;;33.15;28.90;;;15.50;99.90;;;;;;5077844;28;20222;-73
2022/09/11 03:00:13;;;;;;;34.42;26.30;;;15.60;99.90;;;;;;5089792;28;20271;-73
2022/09/11 03:02:42;;;;;;;35.67;31.25;;;15.60;99.90;;;;;;5072155;28;20210;-73
2022/09/11 03:05:11;;;;;;;42.53;33.55;;;15.60;99.90;;;;;;5082916;28;20290;-73
2022/09/11 03:07:38;;;;;;;35.70;31.60;;;15.60;99.90;;;;;;5085323;28;20225;-73
2022/09/11 03:10:10;;;;;;;43.97;33.78;;;15.70;99.90;;;;;;5078263;28;20701;-73
2022/09/11 03:12:37;;;;;;;43.08;32.22;;;15.70;99.90;;;;;;5087397;28;20226;-73
2022/09/11 03:15:04;;;;;;;45.92;34.88;;;15.80;99.90;;;;;;5083473;28;20292;-71
2022/09/11 03:17:33;;;;;;;47.83;37.53;;;15.90;99.90;;;;;;5083785;28;20235;-72
2022/09/11 03:19:59;;;;;;;44.17;35.70;;;15.90;99.90;;;;;;5084227;28;20198;-73
2022/09/11 03:22:26;;;;;;;38.22;33.22;;;16.00;99.90;;;;;;5086455;28;20195;-72
2022/09/11 03:24:53;;;;;;;42.38;33.55;;;16.10;99.90;;;;;;5082132;28;20470;-72
2022/09/11 03:27:22;;;;;;;50.67;38.20;;;16.10;99.90;;;;;;5085179;28;20231;-72
2022/09/11 03:29:49;;;;;;;47.25;33.05;;;16.10;99.90;;;;;;5080367;28;20695;-72
2022/09/11 03:32:16;;;;;;;53.08;37.53;;;16.10;99.90;;;;;;5083680;28;20222;-72
2022/09/11 03:34:46;;;;;;;47.97;34.47;;;16.20;99.90;;;;;;5080203;28;20625;-73
2022/09/11 03:37:14;;;;;;;51.70;38.45;;;16.20;99.90;;;;;;5087288;28;20306;-73
2022/09/11 03:39:42;;;;;;;57.92;41.03;;;16.40;99.90;;;;;;5079644;28;20229;-74
2022/09/11 03:42:11;;;;;;;65.83;42.43;;;16.30;99.90;;;;;;5074531;28;20205;-72
2022/09/11 03:44:38;;;;;;;52.13;36.25;;;16.40;99.90;;;;;;5073812;28;20953;-73
2022/09/11 03:47:06;;;;;;;68.38;43.33;;;16.40;99.90;;;;;;5073103;28;20307;-72
2022/09/11 03:49:33;;;;;;;60.78;40.78;;;16.40;99.90;;;;;;5072709;28;20302;-72
2022/09/11 03:52:01;;;;;;;59.55;41.03;;;16.40;99.90;;;;;;5073165;28;20289;-73
2022/09/11 03:54:28;;;;;;;54.33;38.08;;;16.40;99.90;;;;;;5073637;28;20225;-72
2022/09/11 03:56:55;;;;;;;75.97;39.70;;;16.50;99.90;;;;;;5073644;28;20346;-71
2022/09/11 03:59:22;;;;;;;66.85;38.47;;;16.50;99.90;;;;;;5073715;28;20287;-73
2022/09/11 04:01:49;;;;;;;67.60;38.65;;;16.50;99.90;;;;;;5078228;28;20337;-72
2022/09/11 04:04:19;;;;;;;55.33;37.40;;;16.50;99.90;;;;;;5078952;28;20204;-72
2022/09/11 04:06:46;;;;;;;78.63;40.60;;;16.50;99.90;;;;;;5085548;28;20248;-73
2022/09/11 04:09:16;;;;;;;68.13;39.60;;;16.50;99.90;;;;;;5070643;28;20603;-72
2022/09/11 04:11:43;;;;;;;82.18;44.50;;;16.50;99.90;;;;;;5076946;28;20204;-72
2022/09/11 04:14:10;;;;;;;83.20;45.33;;;16.50;99.90;;;;;;5077795;28;20291;-73
2022/09/11 04:16:37;;;;;;;72.53;43.40;;;16.50;99.90;;;;;;5072952;28;20591;-73
2022/09/11 04:19:04;;;;;;;64.95;41.35;;;16.50;99.90;;;;;;5073553;28;20519;-72
2022/09/11 04:21:32;;;;;;;70.70;44.53;;;16.50;99.90;;;;;;5073125;28;20284;-71
2022/09/11 04:23:59;;;;;;;74.57;43.85;;;16.50;99.90;;;;;;5074391;28;20456;-73
2022/09/11 04:26:29;;;;;;;74.57;44.58;;;16.40;99.90;;;;;;5085183;28;20209;-71
2022/09/11 04:28:58;;;;;;;65.75;44.00;;;16.40;99.90;;;;;;5086364;28;20237;-72
2022/09/11 04:31:26;;;;;;;66.28;44.40;;;16.40;99.90;;;;;;5076452;28;20265;-71
2022/09/11 04:33:54;;;;;;;72.78;47.88;;;16.40;99.90;;;;;;5072554;28;20201;-73
2022/09/11 04:36:23;;;;;;;71.07;45.33;;;16.40;99.90;;;;;;5080342;28;20312;-73
2022/09/11 04:38:55;;;;;;;61.05;41.80;;;16.30;99.90;;;;;;5072753;28;20819;-73
2022/09/11 04:41:22;;;;;;;86.70;49.70;;;16.30;99.90;;;;;;5072363;28;20205;-72
2022/09/11 04:43:54;;;;;;;66.47;43.45;;;16.30;99.90;;;;;;5072291;28;20205;-72
2022/09/11 04:46:22;;;;;;;70.65;46.38;;;16.30;99.90;;;;;;5077156;28;20202;-72
2022/09/11 04:48:51;;;;;;;73.87;46.53;;;16.30;99.90;;;;;;5071643;28;20210;-72
2022/09/11 04:51:21;;;;;;;66.63;41.97;;;16.20;99.90;;;;;;5071045;28;20472;-72
2022/09/11 04:53:48;;;;;;;83.03;45.22;;;16.20;99.90;;;;;;5070361;28;20210;-72
2022/09/11 04:56:15;;;;;;;100.25;47.33;;;16.20;99.90;;;;;;5071705;28;20587;-74
2022/09/11 04:58:43;;;;;;;82.07;43.95;;;16.20;99.90;;;;;;5070590;28;20284;-71
2022/09/11 05:01:15;;;;;;;70.45;41.78;;;16.10;99.90;;;;;;5070764;28;20229;-74
2022/09/11 05:03:43;;;;;;;77.45;42.17;;;16.10;99.90;;;;;;5067035;28;20212;-73
2022/09/11 05:06:15;;;;;;;76.80;41.55;;;16.10;99.90;;;;;;5068466;28;20266;-72
2022/09/11 05:08:42;;;;;;;64.00;37.92;;;16.00;99.90;;;;;;5065024;28;20215;-72
2022/09/11 05:11:12;;;;;;;61.10;38.17;;;16.10;99.90;;;;;;5065590;28;20239;-72
2022/09/11 05:13:39;;;;;;;63.20;33.55;;;16.10;99.90;;;;;;5070411;28;20194;-72
2022/09/11 05:16:08;;;;;;;72.68;37.50;;;16.10;99.90;;;;;;5065035;28;20209;-72
2022/09/11 05:18:36;;;;;;;61.25;32.40;;;16.10;99.90;;;;;;5079118;28;20203;-71
2022/09/11 05:21:06;;;;;;;56.08;29.92;;;16.10;99.90;;;;;;5065227;28;20297;-72
2022/09/11 05:23:33;;;;;;;45.08;25.17;;;16.10;99.90;;;;;;5064204;28;20201;-74
2022/09/11 05:26:02;;;;;;;48.08;25.80;;;16.10;99.90;;;;;;5071457;28;20203;-72
2022/09/11 05:28:29;;;;;;;43.10;24.65;;;16.10;99.90;;;;;;5069639;28;20220;-73
2022/09/11 05:30:57;;;;;;;54.72;24.80;;;16.10;99.90;;;;;;5070177;28;20239;-73
2022/09/11 05:33:25;;;;;;;42.95;23.15;;;16.10;99.90;;;;;;5067835;28;20308;-73
2022/09/11 05:35:54;;;;;;;40.22;23.73;;;16.10;99.90;;;;;;5069890;28;20349;-72
2022/09/11 05:38:22;;;;;;;50.65;26.67;;;16.10;99.90;;;;;;5069244;28;20648;-73
2022/09/11 05:40:51;;;;;;;50.15;26.42;;;16.10;99.90;;;;;;5063122;28;20637;-73
2022/09/11 05:43:19;;;;;;;51.67;26.92;;;16.00;99.90;;;;;;5070564;28;20204;-72
2022/09/11 05:45:55;;;;;;;56.20;28.20;;;16.10;99.90;;;;;;5067495;28;20232;-72
2022/09/11 05:48:23;;;;;;;68.63;32.42;;;16.10;99.90;;;;;;5068275;28;20301;-71
2022/09/11 05:50:55;;;;;;;53.60;30.20;;;16.10;99.90;;;;;;5063807;28;20315;-72
2022/09/11 05:53:22;;;;;;;66.60;30.85;;;16.00;99.90;;;;;;5066181;28;20205;-73
2022/09/11 05:55:50;;;;;;;54.45;27.83;;;16.00;99.90;;;;;;5068107;28;20196;-72
2022/09/11 05:58:18;;;;;;;70.38;30.80;;;16.00;99.90;;;;;;5065628;28;20228;-75
2022/09/11 06:00:45;;;;;;;62.58;28.50;;;16.10;99.90;;;;;;5078798;28;20656;-72
2022/09/11 06:03:13;;;;;;;50.33;28.70;;;16.10;99.90;;;;;;5084376;28;20200;-73
2022/09/11 06:05:40;;;;;;;39.83;25.42;;;16.10;99.90;;;;;;5075166;28;20643;-73
2022/09/11 06:08:10;;;;;;;82.83;32.23;;;16.20;99.90;;;;;;5079562;28;20223;-72
2022/09/11 06:10:37;;;;;;;34.25;24.33;;;16.20;99.90;;;;;;5072952;28;20490;-71
2022/09/11 06:13:04;;;;;;;46.92;29.70;;;16.30;99.90;;;;;;5067226;28;20209;-74
2022/09/11 06:15:31;;;;;;;37.27;25.80;;;16.40;99.90;;;;;;5072198;28;20300;-74
2022/09/11 06:17:59;;;;;;;48.15;28.63;;;16.40;99.90;;;;;;5075406;28;20468;-71
2022/09/11 06:20:25;;;;;;;58.60;31.00;;;16.40;99.90;;;;;;5067335;28;20210;-71
2022/09/11 06:22:53;;;;;;;74.28;35.67;;;16.50;99.90;;;;;;5067286;28;20432;-72
2022/09/11 06:25:22;;;;;;;47.40;31.52;;;16.50;99.90;;;;;;5066575;28;20210;-71
2022/09/11 06:27:48;;;;;;;46.60;29.05;;;16.50;99.90;;;;;;5074550;28;20304;-71
2022/09/11 06:30:15;;;;;;;57.07;33.07;;;16.50;99.90;;;;;;5066537;28;20246;-70
2022/09/11 06:32:42;;;;;;;51.63;30.67;;;16.50;99.90;;;;;;5067418;28;20444;-74
2022/09/11 06:35:10;;;;;;;47.80;31.30;;;16.60;99.90;;;;;;5069534;28;20526;-76
2022/09/11 06:37:37;;;;;;;46.73;29.50;;;16.60;99.90;;;;;;5068062;28;20475;-74
2022/09/11 06:40:05;;;;;;;32.77;27.20;;;16.60;99.90;;;;;;5068999;28;20453;-71
2022/09/11 06:42:33;;;;;;;40.83;30.07;;;16.70;99.90;;;;;;5070753;28;20433;-73
2022/09/11 06:45:01;;;;;;;38.25;28.23;;;16.60;99.90;;;;;;5067035;28;20531;-75
2022/09/11 06:47:28;;;;;;;43.42;30.42;;;16.70;99.90;;;;;;5074383;28;20226;-75
2022/09/11 06:49:55;;;;;;;48.50;30.30;;;16.60;99.90;;;;;;5068135;28;20294;-73
2022/09/11 06:52:22;;;;;;;48.38;31.98;;;16.60;99.90;;;;;;5071233;28;20230;-72
2022/09/11 06:54:49;;;;;;;52.17;33.40;;;16.60;99.90;;;;;;5073489;28;20279;-72
2022/09/11 06:57:16;;;;;;;43.30;30.50;;;16.60;99.90;;;;;;5071729;28;20228;-72
2022/09/11 06:59:45;;;;;;;55.33;34.05;;;16.60;99.90;;;;;;5072954;28;20300;-71
2022/09/11 07:02:11;;;;;;;41.60;28.58;;;16.50;99.90;;;;;;5073151;28;20200;-73
2022/09/11 07:04:38;;;;;;;33.78;27.30;;;16.50;99.90;;;;;;5074008;28;20202;-73
2022/09/11 07:07:05;;;;;;;35.08;26.35;;;16.60;99.90;;;;;;5069082;28;20228;-72
2022/09/11 07:09:32;;;;;;;35.47;27.58;;;16.50;99.90;;;;;;5077947;28;20214;-74
2022/09/11 07:11:59;;;;;;;34.20;26.37;;;16.60;99.90;;;;;;5066842;28;20225;-72
2022/09/11 07:14:26;;;;;;;31.15;25.30;;;16.60;99.90;;;;;;5070462;28;20547;-71
2022/09/11 07:16:54;;;;;;;30.92;23.65;;;16.60;99.90;;;;;;5063394;28;20271;-73
2022/09/11 07:19:23;;;;;;;17.27;15.47;;;16.70;99.90;;;;;;5068974;28;20258;-74
2022/09/11 07:21:50;;;;;;;28.42;18.85;;;16.80;99.90;;;;;;5071769;28;20981;-72
2022/09/11 07:24:17;;;;;;;20.25;16.88;;;17.00;99.90;;;;;;5069824;28;20229;-73
2022/09/11 07:26:44;;;;;;;25.07;15.70;;;17.10;99.90;;;;;;5070415;28;20221;-74
2022/09/11 07:29:11;;;;;;;25.70;21.87;;;17.30;99.90;;;;;;5070352;28;20535;-75
2022/09/11 07:31:38;;;;;;;22.17;18.50;;;17.40;99.90;;;;;;5076980;28;20994;-73
2022/09/11 07:34:07;;;;;;;20.90;18.37;;;17.50;99.90;;;;;;5078686;28;20471;-74
2022/09/11 07:36:36;;;;;;;23.33;17.27;;;17.50;99.90;;;;;;5066645;28;20820;-72
2022/09/11 07:39:04;;;;;;;22.90;18.47;;;17.60;99.90;;;;;;5071261;28;20518;-73
2022/09/11 07:41:33;;;;;;;19.73;17.60;;;17.70;99.90;;;;;;5073273;28;20487;-74
2022/09/11 07:44:02;;;;;;;20.60;17.20;;;17.80;99.90;;;;;;5071113;28;20444;-76
2022/09/11 07:46:30;;;;;;;21.10;16.47;;;17.80;99.90;;;;;;5071360;28;20233;-75
2022/09/11 07:48:57;;;;;;;18.10;14.43;;;17.90;99.90;;;;;;5074449;28;20453;-75
2022/09/11 07:51:26;;;;;;;17.50;15.60;;;17.90;99.90;;;;;;5073621;28;20489;-74
2022/09/11 07:53:53;;;;;;;17.13;15.33;;;18.00;99.90;;;;;;5069027;28;20476;-74
2022/09/11 07:56:22;;;;;;;19.13;15.80;;;18.00;99.90;;;;;;5069496;28;20457;-77
2022/09/11 07:58:56;;;;;;;18.27;15.47;;;18.10;99.90;;;;;;5084529;28;20440;-75
2022/09/11 08:01:25;;;;;;;16.20;14.50;;;18.10;99.90;;;;;;5086208;28;20521;-76
2022/09/11 08:03:55;;;;;;;16.87;15.07;;;18.20;99.90;;;;;;5074608;28;20441;-75
2022/09/11 08:06:24;;;;;;;16.10;14.10;;;18.30;99.90;;;;;;5070874;28;20541;-76
2022/09/11 08:08:54;;;;;;;17.33;15.47;;;18.40;99.90;;;;;;5073561;28;20538;-76
2022/09/11 08:11:22;;;;;;;15.57;13.97;;;18.50;99.90;;;;;;5070815;28;20473;-73
2022/09/11 08:13:50;;;;;;;14.73;12.03;;;18.60;99.90;;;;;;5073076;28;21019;-74
2022/09/11 08:16:18;;;;;;;16.73;13.27;;;18.70;99.90;;;;;;5071079;28;20453;-75
2022/09/11 08:18:45;;;;;;;16.60;14.23;;;18.70;99.90;;;;;;5074988;28;20450;-74
2022/09/11 08:21:12;;;;;;;16.73;14.93;;;18.80;99.90;;;;;;5077639;28;20451;-77
2022/09/11 08:23:42;;;;;;;15.57;13.97;;;18.90;99.90;;;;;;5071415;28;20506;-73
2022/09/11 08:26:12;;;;;;;16.13;14.47;;;18.80;99.90;;;;;;5073381;28;20490;-76
2022/09/11 08:28:41;;;;;;;14.50;13.00;;;18.80;99.90;;;;;;5080390;28;20445;-74
2022/09/11 08:31:11;;;;;;;17.40;13.63;;;18.90;99.90;;;;;;5072423;28;20485;-74
2022/09/11 08:33:38;;;;;;;15.00;12.97;;;19.10;99.90;;;;;;5072898;28;20528;-76
2022/09/11 08:36:08;;;;;;;14.30;12.80;;;20.40;99.90;;;;;;5075023;28;20457;-77
2022/09/11 08:38:37;;;;;;;14.10;12.70;;;21.90;99.90;;;;;;5074176;28;20460;-77
2022/09/11 08:41:19;;;;;;;11.07;10.10;;;23.30;99.90;;;;;;5073328;28;20441;-78
2022/09/11 08:43:50;;;;;;;10.47;9.57;;;24.30;99.90;;;;;;5077062;28;20548;-74
2022/09/11 08:46:21;;;;;;;12.90;10.00;;;25.50;99.90;;;;;;5079653;28;20484;-75
2022/09/11 08:48:58;;;;;;;9.40;8.50;;;26.70;97.40;;;;;;5073486;28;20449;-76
2022/09/11 08:51:25;;;;;;;9.70;8.87;;;27.80;94.00;;;;;;5071365;28;20554;-76
2022/09/11 08:53:54;;;;;;;9.47;8.43;;;27.70;92.00;;;;;;5078964;28;20444;-76
2022/09/11 08:56:29;;;;;;;9.03;8.10;;;27.80;92.30;;;;;;5076447;28;20550;-73
2022/09/11 08:59:16;;;;;;;9.77;8.30;;;27.70;91.30;;;;;;5069314;28;20527;-75
2022/09/11 09:01:48;;;;;;;8.67;7.87;;;26.90;91.80;;;;;;5068656;28;20447;-74
2022/09/11 09:04:40;;;;;;;10.00;9.00;;;26.00;93.60;;;;;;5083222;28;20459;-75
2022/09/11 09:07:15;;;;;;;9.77;8.77;;;25.20;95.20;;;;;;5083748;28;20537;-76
2022/09/11 09:09:52;;;;;;;9.83;8.60;;;24.50;97.40;;;;;;5083660;28;20448;-75
2022/09/11 09:12:28;;;;;;;9.33;8.47;;;24.10;99.20;;;;;;5085653;28;20845;-73
2022/09/11 09:15:24;;;;;;;8.33;7.47;;;24.00;99.20;;;;;;5085722;28;20483;-73
2022/09/11 09:17:55;;;;;;;9.27;8.33;;;23.70;99.90;;;;;;5081317;28;20894;-76
2022/09/11 09:20:29;;;;;;;10.47;9.13;;;23.30;99.90;;;;;;5072102;28;20449;-75
2022/09/11 09:23:01;;;;;;;10.10;7.90;;;22.90;99.90;;;;;;5079024;28;20934;-73
2022/09/11 09:25:30;;;;;;;8.80;7.90;;;22.70;99.90;;;;;;5087006;28;20475;-72
2022/09/11 09:28:10;;;;;;;11.90;9.07;;;22.80;99.90;;;;;;5088768;28;20467;-72
2022/09/11 09:30:44;;;;;;;9.83;8.50;;;23.00;99.90;;;;;;5091243;28;20482;-74
2022/09/11 09:33:29;;;;;;;10.10;9.20;;;22.90;99.90;;;;;;5091273;28;20824;-72
2022/09/11 09:35:57;;;;;;;9.63;8.73;;;22.60;99.90;;;;;;5080360;28;20451;-74
2022/09/11 09:38:28;;;;;;;9.53;8.60;;;22.40;99.90;;;;;;5087370;28;20474;-74
2022/09/11 09:41:08;;;;;;;14.63;10.60;;;22.20;99.90;;;;;;5083014;28;20528;-76
2022/09/11 09:43:47;;;;;;;12.10;10.03;;;22.10;99.90;;;;;;5077002;28;20758;-75
2022/09/11 09:46:23;;;;;;;10.33;9.30;;;21.90;99.90;;;;;;5075408;28;20821;-73
2022/09/11 09:48:50;;;;;;;9.33;8.43;;;22.20;99.90;;;;;;5072006;28;20448;-74
2022/09/11 09:51:17;;;;;;;11.07;9.20;;;22.70;99.90;;;;;;5073636;28;20504;-73
2022/09/11 09:53:50;;;;;;;9.50;8.60;;;24.20;99.90;;;;;;5089739;28;20483;-74
2022/09/11 09:56:19;;;;;;;9.87;9.00;;;25.40;98.50;;;;;;5066331;28;20442;-74
2022/09/11 09:58:57;;;;;;;8.40;7.50;;;26.50;95.60;;;;;;5073797;28;20444;-74
2022/09/11 10:01:43;;;;;;;9.50;8.60;;;27.70;92.50;;;;;;5064568;28;20525;-75
2022/09/11 10:04:15;;;;;;;10.07;8.60;;;27.50;90.90;;;;;;5071404;28;20457;-74
2022/09/11 10:06:44;;;;;;;5.80;5.07;;;26.70;91.50;;;;;;5073938;28;20551;-74
2022/09/11 10:09:23;;;;;;;5.67;5.10;;;26.40;92.50;;;;;;5074881;28;20445;-76
2022/09/11 10:12:01;;;;;;;5.10;4.70;;;26.60;91.30;;;;;;5067971;28;20468;-72
2022/09/11 10:14:32;;;;;;;4.90;4.47;;;26.90;90.60;;;;;;5079071;28;20446;-73
2022/09/11 10:17:00;;;;;;;5.70;5.20;;;27.40;90.00;;;;;;5077269;28;20528;-74
2022/09/11 10:19:37;;;;;;;6.40;5.33;;;27.90;87.80;;;;;;5077223;28;20534;-72
2022/09/11 10:22:25;;;;;;;5.60;5.10;;;28.20;86.20;;;;;;5070701;28;20958;-74
2022/09/11 10:25:11;;;;;;;5.93;5.37;;;28.10;86.30;;;;;;5070750;28;20528;-76
2022/09/11 10:27:49;;;;;;;6.33;5.20;;;28.20;85.40;;;;;;5074578;28;20518;-71
2022/09/11 10:30:33;;;;;;;5.93;5.43;;;28.00;86.50;;;;;;5072957;28;20477;-73
2022/09/11 10:33:04;;;;;;;6.57;5.97;;;27.10;87.30;;;;;;5074249;28;20485;-72
2022/09/11 10:35:33;;;;;;;5.17;4.67;;;26.50;89.40;;;;;;5068690;28;20582;-76
2022/09/11 10:38:05;;;;;;;6.40;4.73;;;26.20;89.20;;;;;;5075958;28;20470;-73
2022/09/11 10:40:33;;;;;;;6.53;5.83;;;25.60;90.40;;;;;;5079728;28;20452;-74
2022/09/11 10:43:00;;;;;;;6.27;5.67;;;25.30;91.20;;;;;;5075550;28;20807;-75
2022/09/11 10:45:27;;;;;;;5.73;5.23;;;25.00;91.80;;;;;;5081475;28;20943;-74
2022/09/11 10:47:55;;;;;;;5.40;4.90;;;25.00;92.50;;;;;;5068739;28;20471;-77
2022/09/11 10:50:27;;;;;;;5.40;4.90;;;25.30;92.50;;;;;;5072210;28;20523;-76
2022/09/11 10:53:16;;;;;;;6.77;6.07;;;25.30;91.20;;;;;;5074994;28;20473;-75
2022/09/11 10:55:50;;;;;;;7.20;6.50;;;24.80;92.30;;;;;;5072527;28;20487;-74
2022/09/11 10:58:21;;;;;;;6.80;6.10;;;24.50;92.90;;;;;;5065061;28;20887;-75
2022/09/11 11:00:51;;;;;;;6.73;6.13;;;24.70;93.10;;;;;;5080424;28;20425;-76
2022/09/11 11:03:23;;;;;;;5.27;4.77;;;25.00;92.20;;;;;;5069633;28;20446;-76
2022/09/11 11:06:05;;;;;;;5.73;5.13;;;25.20;92.20;;;;;;5067060;28;20583;-74
2022/09/11 11:08:56;;;;;;;6.60;6.00;;;24.90;92.50;;;;;;5073317;28;20497;-75
2022/09/11 11:11:39;;;;;;;5.60;5.00;;;24.50;93.00;;;;;;5060996;28;20452;-75
2022/09/11 11:14:30;;;;;;;5.10;4.53;;;24.30;93.60;;;;;;5076242;28;20449;-76
2022/09/11 11:17:03;;;;;;;7.43;4.80;;;24.40;93.50;;;;;;5073841;28;20549;-73
2022/09/11 11:19:46;;;;;;;5.70;5.10;;;24.60;93.30;;;;;;5072929;28;20528;-73
2022/09/11 11:22:24;;;;;;;6.97;6.30;;;24.50;92.90;;;;;;5072996;28;20979;-73
2022/09/11 11:25:03;;;;;;;6.33;5.73;;;24.20;92.90;;;;;;5071781;28;20445;-71
2022/09/11 11:28:00;;;;;;;4.60;4.20;;;24.10;93.50;;;;;;5073458;28;20556;-73
2022/09/11 11:30:31;;;;;;;5.30;4.80;;;24.00;94.00;;;;;;5071334;28;20975;-76
2022/09/11 11:33:22;;;;;;;5.83;5.23;;;23.90;94.10;;;;;;5074281;28;20575;-75
2022/09/11 11:36:01;;;;;;;4.33;3.90;;;23.70;93.90;;;;;;5055193;28;20459;-71
2022/09/11 11:38:36;;;;;;;5.53;5.03;;;23.50;94.60;;;;;;5074774;28;20489;-72
2022/09/11 11:41:09;;;;;;;5.40;4.93;;;23.50;95.40;;;;;;5063858;28;20495;-71
2022/09/11 11:43:40;;;;;;;4.90;4.10;;;23.60;94.80;;;;;;5079157;28;20854;-73
2022/09/11 11:46:16;;;;;;;5.40;5.00;;;23.40;95.10;;;;;;5079156;28;20480;-74
2022/09/11 11:48:49;;;;;;;6.00;5.50;;;23.40;95.50;;;;;;5080409;28;20528;-75
2022/09/11 11:51:20;;;;;;;4.80;4.40;;;23.70;95.00;;;;;;5071880;28;20511;-73
2022/09/11 11:54:01;;;;;;;5.33;4.83;;;23.90;95.00;;;;;;5080488;28;20540;-71
2022/09/11 11:56:34;;;;;;;4.87;4.47;;;24.20;94.50;;;;;;5083232;28;20461;-71
2022/09/11 11:59:10;;;;;;;6.40;4.67;;;24.30;93.50;;;;;;5079625;28;20449;-70
2022/09/11 12:01:42;;;;;;;6.00;5.40;;;24.20;92.70;;;;;;5073561;28;20456;-69
2022/09/11 12:04:19;;;;;;;11.53;10.40;;;24.00;93.80;;;;;;5073843;28;20959;-72
2022/09/11 12:06:48;;;;;;;4.90;4.40;;;23.80;92.80;;;;;;5066513;28;20456;-71
2022/09/11 12:09:17;;;;;;;3.87;3.47;;;23.80;93.40;;;;;;5070145;28;20540;-71
2022/09/11 12:11:49;;;;;;;6.40;4.67;;;24.10;93.30;;;;;;5065337;28;20441;-71
2022/09/11 12:14:26;;;;;;;7.37;6.67;;;23.70;92.70;;;;;;5068459;28;20444;-71
2022/09/11 12:16:55;;;;;;;3.73;3.43;;;24.10;92.80;;;;;;5073791;28;20449;-71
2022/09/11 12:19:24;;;;;;;6.80;5.97;;;24.40;92.30;;;;;;5070404;28;20511;-69
2022/09/11 12:22:14;;;;;;;3.73;3.27;;;24.60;92.00;;;;;;5071626;28;20451;-71
2022/09/11 12:24:57;;;;;;;3.60;2.80;;;24.50;91.70;;;;;;5059555;28;20504;-72
2022/09/11 12:27:54;;;;;;;3.27;2.97;;;24.60;91.90;;;;;;5060838;28;20477;-71
2022/09/11 12:30:25;;;;;;;5.00;3.03;;;24.70;91.50;;;;;;5067090;28;20465;-71
2022/09/11 12:32:53;;;;;;;5.23;3.50;;;24.90;91.40;;;;;;5061752;28;20488;-72
2022/09/11 12:35:31;;;;;;;4.47;3.47;;;24.90;90.90;;;;;;5065578;28;20936;-72
2022/09/11 12:38:03;;;;;;;4.63;3.33;;;24.80;90.70;;;;;;5062600;28;20462;-71
2022/09/11 12:40:38;;;;;;;4.37;2.70;;;24.80;90.60;;;;;;5071142;28;20448;-72
2022/09/11 12:43:30;;;;;;;3.10;2.70;;;24.80;90.20;;;;;;5075253;28;20451;-70
2022/09/11 12:45:57;;;;;;;5.80;2.80;;;25.00;90.20;;;;;;5068041;28;20513;-72
2022/09/11 12:48:36;;;;;;;3.63;2.43;;;24.90;90.30;;;;;;5077455;28;20529;-70
2022/09/11 12:51:05;;;;;;;4.07;2.47;;;24.80;90.30;;;;;;5070156;28;20532;-70
2022/09/11 12:53:36;;;;;;;2.63;2.27;;;24.70;90.10;;;;;;5076016;28;20565;-71
2022/09/11 12:56:06;;;;;;;2.30;2.10;;;24.80;90.00;;;;;;5060752;28;20442;-74